createdAt,value
2019-05-26T00:00:08.499Z,15.43
2019-05-26T00:02:38.468Z,19.00
2019-05-26T00:05:08.206Z,19.67
2019-05-26T00:07:37.504Z,13.75
2019-05-26T00:10:10.090Z,13.22
2019-05-26T00:12:39.661Z,14.63
2019-05-26T00:15:09.305Z,11.30
2019-05-26T00:17:38.606Z,14.68
2019-05-26T00:20:08.644Z,11.70
2019-05-26T00:22:37.963Z,14.05
2019-05-26T00:25:08.292Z,13.58
2019-05-26T00:27:37.602Z,17.35
2019-05-26T00:30:09.037Z,19.52
2019-05-26T00:32:38.343Z,16.65
2019-05-26T00:35:08.644Z,15.08
2019-05-26T00:37:49.272Z,10.35
2019-05-26T00:40:10.356Z,16.93
2019-05-26T00:42:39.744Z,17.05
2019-05-26T00:45:09.580Z,13.18
2019-05-26T00:47:39.082Z,13.15
2019-05-26T00:50:09.386Z,12.45
2019-05-26T00:52:38.865Z,15.72
2019-05-26T00:55:09.774Z,13.22
2019-05-26T00:57:39.151Z,20.97
2019-05-26T01:00:11.917Z,11.18
2019-05-26T01:02:41.222Z,18.75
2019-05-26T01:05:10.850Z,15.32
2019-05-26T01:07:40.161Z,11.70
2019-05-26T01:10:10.494Z,19.50
2019-05-26T01:12:39.997Z,10.53
2019-05-26T01:15:09.839Z,20.02
2019-05-26T01:17:40.220Z,14.05
2019-05-26T01:20:09.968Z,14.50
2019-05-26T01:22:39.321Z,14.00
2019-05-26T01:25:09.162Z,14.63
2019-05-26T01:27:38.475Z,12.37
2019-05-26T01:30:08.484Z,14.25
2019-05-26T01:32:37.798Z,11.48
2019-05-26T01:35:07.454Z,13.03
2019-05-26T01:37:40.488Z,13.98
2019-05-26T01:40:10.114Z,13.35
2019-05-26T01:42:39.420Z,15.50
2019-05-26T01:45:09.363Z,16.07
2019-05-26T01:47:38.729Z,16.40
2019-05-26T01:50:08.484Z,13.32
2019-05-26T01:52:37.797Z,21.48
2019-05-26T01:55:07.227Z,15.23
2019-05-26T01:57:37.680Z,15.08
2019-05-26T02:00:08.315Z,14.98
2019-05-26T02:02:38.697Z,15.48
2019-05-26T02:05:08.536Z,11.78
2019-05-26T02:07:37.841Z,22.27
2019-05-26T02:10:07.372Z,16.12
2019-05-26T02:12:36.675Z,18.98
2019-05-26T02:15:07.413Z,13.28
2019-05-26T02:17:36.725Z,18.75
2019-05-26T02:20:07.852Z,20.35
2019-05-26T02:22:37.160Z,13.60
2019-05-26T02:25:10.043Z,16.25
2019-05-26T02:27:39.349Z,16.27
2019-05-26T02:30:09.787Z,11.78
2019-05-26T02:32:39.079Z,13.08
2019-05-26T02:35:09.212Z,15.63
2019-05-26T02:37:38.517Z,19.23
2019-05-26T02:40:08.761Z,14.18
2019-05-26T02:42:38.235Z,14.85
2019-05-26T02:45:09.444Z,16.35
2019-05-26T02:47:38.740Z,20.72
2019-05-26T02:50:08.585Z,19.57
2019-05-26T02:52:37.921Z,10.63
2019-05-26T02:55:08.667Z,18.77
2019-05-26T02:57:37.967Z,19.37
2019-05-26T03:00:11.684Z,24.27
2019-05-26T03:02:41.165Z,10.75
2019-05-26T03:05:11.646Z,14.70
2019-05-26T03:07:43.221Z,16.37
2019-05-26T03:10:14.722Z,11.63
2019-05-26T03:12:56.469Z,17.85
2019-05-26T03:15:25.862Z,14.33
2019-05-26T03:17:56.587Z,20.90
2019-05-26T03:20:25.972Z,15.58
2019-05-26T03:22:57.413Z,17.73
2019-05-26T03:25:26.716Z,15.00
2019-05-26T03:27:56.007Z,15.65
2019-05-26T03:30:25.340Z,18.62
2019-05-26T03:32:54.640Z,14.78
2019-05-26T03:35:24.000Z,17.65
2019-05-26T03:37:53.300Z,16.82
2019-05-26T03:40:22.600Z,20.45
2019-05-26T03:42:51.891Z,17.85
2019-05-26T03:45:42.187Z,16.35
2019-05-26T03:48:11.828Z,18.45
2019-05-26T03:50:41.160Z,18.75
2019-05-26T03:53:10.510Z,12.37
2019-05-26T03:55:39.825Z,13.62
2019-05-26T03:58:09.111Z,22.52
2019-05-26T04:00:38.420Z,17.20
2019-05-26T04:03:07.736Z,21.70
2019-05-26T04:05:37.181Z,19.40
2019-05-26T04:08:06.481Z,27.58
2019-05-26T04:10:35.793Z,23.65
2019-05-26T04:13:05.087Z,23.85
2019-05-26T04:15:34.463Z,26.05
2019-05-26T04:18:03.787Z,24.92
2019-05-26T04:20:33.087Z,21.62
2019-05-26T04:23:02.384Z,24.05
2019-05-26T04:25:31.688Z,26.68
2019-05-26T04:28:00.987Z,23.70
2019-05-26T04:30:30.305Z,22.25
2019-05-26T04:32:59.610Z,27.32
2019-05-26T04:35:28.903Z,21.90
2019-05-26T04:37:58.207Z,22.62
2019-05-26T04:40:28.187Z,21.62
2019-05-26T04:42:57.796Z,22.87
2019-05-26T04:45:27.154Z,21.02
2019-05-26T04:47:56.463Z,21.68
2019-05-26T04:50:25.768Z,24.77
2019-05-26T04:53:05.957Z,27.60
2019-05-26T04:55:26.145Z,35.90
2019-05-26T04:57:55.452Z,23.98
2019-05-26T05:00:24.752Z,29.52
2019-05-26T05:02:54.129Z,28.65
2019-05-26T05:05:23.436Z,25.43
2019-05-26T05:07:52.812Z,27.20
2019-05-26T05:10:22.131Z,23.73
2019-05-26T05:12:52.506Z,34.40
2019-05-26T05:15:21.805Z,31.17
2019-05-26T05:17:51.112Z,30.92
2019-05-26T05:20:20.411Z,25.75
2019-05-26T05:22:49.734Z,28.05
2019-05-26T05:25:19.031Z,30.97
2019-05-26T05:27:48.340Z,26.60
2019-05-26T05:30:18.010Z,31.82
2019-05-26T05:32:47.309Z,31.65
2019-05-26T05:35:16.957Z,34.70
2019-05-26T05:37:46.435Z,33.20
2019-05-26T05:40:16.176Z,35.30
2019-05-26T05:42:45.551Z,37.28
2019-05-26T05:45:16.095Z,37.03
2019-05-26T05:47:45.410Z,40.88
2019-05-26T05:50:15.261Z,37.20
2019-05-26T05:52:44.568Z,36.85
2019-05-26T05:55:14.371Z,36.60
2019-05-26T05:57:43.699Z,37.67
2019-05-26T06:00:14.599Z,39.78
2019-05-26T06:02:43.925Z,36.73
2019-05-26T06:05:13.631Z,39.42
2019-05-26T06:07:42.976Z,46.10
2019-05-26T06:10:12.454Z,35.25
2019-05-26T06:12:41.743Z,42.65
2019-05-26T06:15:12.643Z,41.70
2019-05-26T06:17:42.454Z,41.58
2019-05-26T06:20:12.399Z,51.18
2019-05-26T06:22:41.708Z,45.12
2019-05-26T06:25:11.554Z,48.65
2019-05-26T06:27:40.856Z,38.78
2019-05-26T06:30:11.802Z,46.23
2019-05-26T06:32:41.108Z,43.65
2019-05-26T06:35:10.872Z,41.02
2019-05-26T06:37:40.173Z,43.17
2019-05-26T06:40:09.713Z,40.05
2019-05-26T06:42:39.023Z,37.50
2019-05-26T06:45:09.171Z,36.63
2019-05-26T06:47:38.479Z,39.25
2019-05-26T06:50:08.019Z,38.67
2019-05-26T06:52:37.319Z,35.30
2019-05-26T06:55:07.170Z,39.40
2019-05-26T06:57:36.467Z,37.00
2019-05-26T07:00:08.082Z,39.67
2019-05-26T07:02:37.836Z,36.83
2019-05-26T07:05:08.188Z,33.55
2019-05-26T07:07:37.484Z,37.67
2019-05-26T07:10:07.659Z,34.18
2019-05-26T07:12:37.325Z,37.83
2019-05-26T07:15:08.087Z,40.75
2019-05-26T07:17:37.385Z,38.10
2019-05-26T07:20:07.843Z,34.60
2019-05-26T07:22:37.308Z,37.42
2019-05-26T07:25:08.459Z,35.23
2019-05-26T07:27:37.759Z,37.42
2019-05-26T07:30:07.921Z,35.15
2019-05-26T07:32:37.215Z,35.48
2019-05-26T07:35:07.963Z,39.10
2019-05-26T07:37:37.401Z,34.90
2019-05-26T07:40:07.453Z,34.80
2019-05-26T07:42:36.753Z,36.70
2019-05-26T07:45:06.904Z,34.58
2019-05-26T07:47:36.210Z,33.78
2019-05-26T07:50:06.966Z,36.53
2019-05-26T07:52:37.038Z,34.95
2019-05-26T07:55:06.920Z,29.23
2019-05-26T07:57:36.439Z,39.18
2019-05-26T08:00:08.052Z,31.40
2019-05-26T08:02:37.352Z,30.32
2019-05-26T08:05:09.683Z,28.98
2019-05-26T08:07:38.991Z,37.05
2019-05-26T08:10:09.020Z,34.18
2019-05-26T08:12:38.343Z,28.60
2019-05-26T08:15:08.621Z,32.23
2019-05-26T08:17:37.946Z,29.05
2019-05-26T08:20:09.174Z,36.80
2019-05-26T08:22:38.471Z,29.18
2019-05-26T08:25:08.215Z,30.60
2019-05-26T08:27:37.597Z,25.65
2019-05-26T08:30:09.232Z,28.40
2019-05-26T08:32:38.531Z,32.83
2019-05-26T08:35:08.377Z,24.37
2019-05-26T08:37:37.691Z,25.97
2019-05-26T08:40:19.563Z,30.43
2019-05-26T08:42:50.997Z,24.72
2019-05-26T08:45:23.170Z,27.45
2019-05-26T08:47:53.092Z,24.15
2019-05-26T08:50:22.839Z,21.48
2019-05-26T08:52:52.152Z,21.30
2019-05-26T08:55:21.907Z,19.80
2019-05-26T08:57:52.185Z,21.45
2019-05-26T09:00:21.942Z,20.55
2019-05-26T09:02:51.282Z,20.43
2019-05-26T09:05:21.063Z,24.87
2019-05-26T09:07:50.361Z,20.30
2019-05-26T09:10:20.415Z,25.10
2019-05-26T09:13:00.134Z,25.32
2019-05-26T09:15:20.876Z,21.10
2019-05-26T09:17:50.191Z,17.62
2019-05-26T09:20:19.976Z,19.20
2019-05-26T09:22:49.327Z,26.65
2019-05-26T09:25:18.774Z,17.67
2019-05-26T09:27:48.201Z,19.27
2019-05-26T09:30:17.932Z,17.50
2019-05-26T09:32:47.235Z,22.90
2019-05-26T09:35:16.889Z,18.52
2019-05-26T09:37:46.215Z,18.52
2019-05-26T09:40:15.859Z,16.57
2019-05-26T09:42:45.160Z,18.82
2019-05-26T09:45:15.007Z,16.50
2019-05-26T09:47:44.309Z,20.65
2019-05-26T09:50:14.091Z,18.82
2019-05-26T09:52:43.423Z,16.20
2019-05-26T09:55:13.364Z,17.05
2019-05-26T09:57:42.668Z,14.95
2019-05-26T10:00:16.050Z,17.52
2019-05-26T10:02:44.011Z,17.25
2019-05-26T10:05:14.652Z,14.03
2019-05-26T10:07:44.030Z,19.10
2019-05-26T10:10:15.048Z,17.12
2019-05-26T10:12:44.343Z,17.92
2019-05-26T10:15:14.293Z,22.60
2019-05-26T10:17:43.616Z,14.68
2019-05-26T10:20:14.156Z,18.87
2019-05-26T10:22:43.545Z,17.73
2019-05-26T10:25:13.071Z,18.30
2019-05-26T10:27:42.375Z,14.38
2019-05-26T10:30:13.688Z,16.62
2019-05-26T10:32:43.016Z,16.32
2019-05-26T10:35:12.645Z,14.43
2019-05-26T10:37:41.955Z,12.80
2019-05-26T10:40:11.719Z,15.32
2019-05-26T10:42:41.801Z,20.75
2019-05-26T10:45:12.651Z,17.10
2019-05-26T10:47:41.955Z,16.40
2019-05-26T10:50:13.889Z,14.83
2019-05-26T10:52:43.187Z,15.75
2019-05-26T10:55:13.034Z,20.72
2019-05-26T10:57:42.815Z,13.90
2019-05-26T11:00:14.068Z,19.82
2019-05-26T11:02:43.372Z,20.43
2019-05-26T11:05:13.213Z,17.45
2019-05-26T11:07:42.520Z,14.98
2019-05-26T11:10:13.182Z,19.82
2019-05-26T11:12:42.483Z,16.05
2019-05-26T11:15:12.052Z,14.65
2019-05-26T11:17:41.351Z,16.05
2019-05-26T11:20:12.475Z,17.27
2019-05-26T11:22:41.778Z,14.85
2019-05-26T11:25:11.441Z,16.77
2019-05-26T11:27:40.804Z,18.17
2019-05-26T11:30:12.580Z,18.25
2019-05-26T11:32:42.390Z,16.05
2019-05-26T11:35:12.235Z,19.00
2019-05-26T11:37:41.531Z,15.65
2019-05-26T11:40:13.198Z,16.15
2019-05-26T11:42:44.803Z,19.17
2019-05-26T11:45:14.034Z,16.17
2019-05-26T11:47:43.606Z,16.40
2019-05-26T11:50:13.552Z,17.30
2019-05-26T11:52:42.860Z,14.33
2019-05-26T11:55:14.021Z,12.55
2019-05-26T11:57:43.313Z,21.85
2019-05-26T12:00:15.834Z,14.60
2019-05-26T12:02:45.949Z,17.60
2019-05-26T12:05:17.677Z,12.63
2019-05-26T12:07:47.257Z,14.28
2019-05-26T12:10:17.000Z,11.63
2019-05-26T12:12:46.303Z,14.93
2019-05-26T12:15:18.771Z,10.40
2019-05-26T12:17:48.077Z,10.40
2019-05-26T12:20:18.422Z,12.68
2019-05-26T12:22:47.726Z,13.72
2019-05-26T12:25:17.110Z,14.13
2019-05-26T12:27:46.408Z,13.48
2019-05-26T12:30:16.054Z,15.15
2019-05-26T12:32:46.438Z,14.00
2019-05-26T12:35:16.273Z,10.75
2019-05-26T12:37:48.312Z,18.80
2019-05-26T12:40:17.121Z,16.27
2019-05-26T12:42:46.415Z,13.88
2019-05-26T12:45:16.559Z,12.98
2019-05-26T12:47:45.877Z,14.90
2019-05-26T12:50:16.719Z,12.93
2019-05-26T12:52:46.015Z,13.40
2019-05-26T12:55:16.251Z,17.87
2019-05-26T12:57:45.550Z,13.60
2019-05-26T13:00:16.669Z,12.30
2019-05-26T13:02:46.166Z,16.12
2019-05-26T13:05:16.200Z,17.82
2019-05-26T13:07:45.511Z,12.50
2019-05-26T13:10:15.341Z,15.15
2019-05-26T13:12:44.823Z,11.88
2019-05-26T13:15:14.760Z,15.72
2019-05-26T13:17:44.051Z,9.70
2019-05-26T13:20:14.768Z,12.18
2019-05-26T13:22:44.139Z,15.25
2019-05-26T13:25:15.991Z,15.65
2019-05-26T13:27:45.291Z,12.28
2019-05-26T13:30:23.217Z,11.60
2019-05-26T13:32:52.530Z,14.45
2019-05-26T13:35:22.060Z,10.18
2019-05-26T13:37:51.527Z,12.98
2019-05-26T13:40:21.287Z,18.10
2019-05-26T13:42:50.582Z,13.25
2019-05-26T13:45:22.700Z,10.80
2019-05-26T13:47:51.519Z,13.48
2019-05-26T13:50:21.468Z,15.72
2019-05-26T13:52:50.766Z,18.62
2019-05-26T13:55:20.407Z,11.33
2019-05-26T13:57:49.899Z,9.83
2019-05-26T14:00:20.120Z,13.53
2019-05-26T14:02:49.428Z,13.58
2019-05-26T14:05:18.782Z,12.98
2019-05-26T14:07:48.101Z,12.90
2019-05-26T14:10:20.468Z,10.65
2019-05-26T14:12:49.777Z,9.85
2019-05-26T14:15:19.137Z,16.37
2019-05-26T14:17:48.979Z,14.93
2019-05-26T14:20:21.351Z,12.82
2019-05-26T14:22:50.663Z,12.75
2019-05-26T14:25:20.009Z,11.35
2019-05-26T14:27:49.351Z,13.13
2019-05-26T14:30:18.892Z,15.48
2019-05-26T14:32:48.200Z,12.82
2019-05-26T14:35:17.500Z,9.73
2019-05-26T14:37:46.803Z,12.95
2019-05-26T14:40:16.235Z,9.78
2019-05-26T14:42:45.536Z,14.38
2019-05-26T14:45:16.625Z,11.00
2019-05-26T14:47:45.996Z,15.18
2019-05-26T14:50:17.208Z,15.70
2019-05-26T14:52:46.577Z,16.60
2019-05-26T14:55:16.328Z,14.35
2019-05-26T14:57:45.608Z,12.55
2019-05-26T15:00:15.747Z,11.48
2019-05-26T15:02:45.055Z,11.55
2019-05-26T15:05:15.197Z,18.45
2019-05-26T15:07:44.625Z,17.82
2019-05-26T15:10:14.470Z,16.55
2019-05-26T15:12:43.943Z,12.85
2019-05-26T15:15:13.691Z,18.30
2019-05-26T15:17:43.968Z,18.65
2019-05-26T15:20:15.414Z,17.75
2019-05-26T15:22:44.694Z,20.52
2019-05-26T15:25:14.013Z,18.70
2019-05-26T15:27:46.411Z,14.28
2019-05-26T15:30:14.680Z,15.78
2019-05-26T15:32:44.052Z,10.68
2019-05-26T15:35:14.772Z,15.68
2019-05-26T15:37:44.067Z,14.85
2019-05-26T15:40:13.916Z,17.62
2019-05-26T15:42:43.287Z,11.78
2019-05-26T15:45:12.748Z,18.30
2019-05-26T15:47:42.060Z,18.82
2019-05-26T15:50:13.837Z,11.63
2019-05-26T15:52:43.286Z,11.55
2019-05-26T15:55:12.916Z,10.58
2019-05-26T15:57:42.295Z,6.67
2019-05-26T16:00:12.072Z,9.00
2019-05-26T16:02:41.439Z,9.40
2019-05-26T16:05:11.380Z,10.53
2019-05-26T16:07:40.683Z,10.38
2019-05-26T16:10:10.443Z,7.78
2019-05-26T16:12:39.739Z,2.80
2019-05-26T16:15:09.686Z,6.03
2019-05-26T16:17:39.336Z,3.92
2019-05-26T16:20:09.377Z,11.35
2019-05-26T16:22:38.674Z,3.05
2019-05-26T16:25:20.457Z,4.35
2019-05-26T16:27:49.788Z,3.62
2019-05-26T16:30:19.316Z,4.20
2019-05-26T16:32:49.563Z,6.12
2019-05-26T16:35:19.251Z,6.15
2019-05-26T16:37:48.879Z,7.50
2019-05-26T16:40:18.171Z,7.12
2019-05-26T16:42:47.474Z,6.08
2019-05-26T16:45:17.779Z,4.42
2019-05-26T16:47:47.120Z,9.05
2019-05-26T16:50:16.411Z,7.80
2019-05-26T16:52:45.705Z,3.72
2019-05-26T16:55:15.234Z,7.25
2019-05-26T16:57:44.534Z,9.98
2019-05-26T17:00:14.197Z,3.92
2019-05-26T17:02:43.543Z,8.00
2019-05-26T17:05:13.152Z,5.58
2019-05-26T17:07:42.448Z,5.58
2019-05-26T17:10:12.023Z,4.72
2019-05-26T17:12:41.320Z,9.58
2019-05-26T17:15:11.559Z,6.85
2019-05-26T17:17:40.859Z,4.33
2019-05-26T17:20:11.100Z,6.40
2019-05-26T17:22:40.391Z,3.60
2019-05-26T17:25:10.340Z,15.50
2019-05-26T17:27:39.631Z,4.53
2019-05-26T17:30:09.472Z,6.83
2019-05-26T17:32:38.771Z,5.55
2019-05-26T17:35:08.871Z,5.47
2019-05-26T17:37:38.157Z,8.10
2019-05-26T17:40:07.999Z,5.70
2019-05-26T17:42:37.286Z,7.47
2019-05-26T17:45:07.627Z,10.10
2019-05-26T17:47:36.996Z,7.28
2019-05-26T17:50:08.703Z,5.80
2019-05-26T17:52:38.001Z,8.18
2019-05-26T17:55:08.240Z,6.25
2019-05-26T17:57:38.483Z,6.47
2019-05-26T18:00:12.409Z,5.37
2019-05-26T18:02:41.713Z,6.72
2019-05-26T18:05:12.245Z,11.50
2019-05-26T18:07:41.610Z,4.97
2019-05-26T18:10:11.279Z,12.40
2019-05-26T18:12:40.575Z,4.95
2019-05-26T18:15:10.519Z,7.00
2019-05-26T18:17:46.899Z,4.03
2019-05-26T18:20:12.579Z,4.78
2019-05-26T18:22:43.007Z,4.10
2019-05-26T18:25:13.207Z,6.05
2019-05-26T18:27:42.498Z,4.72
2019-05-26T18:30:12.441Z,3.47
2019-05-26T18:32:41.771Z,4.78
2019-05-26T18:35:11.523Z,4.58
2019-05-26T18:37:40.893Z,6.12
2019-05-26T18:40:11.359Z,6.53
2019-05-26T18:42:40.985Z,7.45
2019-05-26T18:45:12.505Z,4.47
2019-05-26T18:47:41.800Z,7.25
2019-05-26T18:50:12.323Z,6.58
2019-05-26T18:52:41.637Z,7.05
2019-05-26T18:55:11.157Z,9.03
2019-05-26T18:57:40.455Z,5.53
2019-05-26T19:00:11.160Z,6.05
2019-05-26T19:02:41.492Z,7.90
2019-05-26T19:05:10.931Z,7.83
2019-05-26T19:07:40.319Z,8.85
2019-05-26T19:10:10.349Z,8.25
2019-05-26T19:12:39.639Z,15.83
2019-05-26T19:15:09.657Z,10.00
2019-05-26T19:17:38.978Z,11.53
2019-05-26T19:20:16.034Z,19.15
2019-05-26T19:22:40.623Z,12.80
2019-05-26T19:25:10.162Z,14.33
2019-05-26T19:27:39.727Z,14.00
2019-05-26T19:30:11.435Z,11.25
2019-05-26T19:32:40.754Z,16.05
2019-05-26T19:35:12.444Z,10.00
2019-05-26T19:37:41.750Z,5.15
2019-05-26T19:40:11.871Z,11.63
2019-05-26T19:42:42.853Z,8.78
2019-05-26T19:45:12.284Z,7.37
2019-05-26T19:47:41.610Z,8.50
2019-05-26T19:50:12.126Z,10.03
2019-05-26T19:52:43.060Z,9.13
2019-05-26T19:55:12.635Z,5.90
2019-05-26T19:57:45.267Z,9.30
2019-05-26T20:00:16.004Z,12.03
2019-05-26T20:02:46.263Z,8.70
2019-05-26T20:05:15.937Z,7.65
2019-05-26T20:07:45.386Z,9.88
2019-05-26T20:10:15.214Z,9.08
2019-05-26T20:12:44.679Z,9.40
2019-05-26T20:15:14.525Z,9.83
2019-05-26T20:17:44.173Z,7.47
2019-05-26T20:20:14.668Z,14.13
2019-05-26T20:22:43.981Z,12.43
2019-05-26T20:25:14.719Z,10.90
2019-05-26T20:27:44.024Z,15.53
2019-05-26T20:30:13.661Z,8.25
2019-05-26T20:32:43.099Z,12.10
2019-05-26T20:35:12.467Z,5.60
2019-05-26T20:37:41.779Z,5.92
2019-05-26T20:40:11.499Z,10.05
2019-05-26T20:42:40.819Z,7.20
2019-05-26T20:45:10.757Z,10.93
2019-05-26T20:47:40.049Z,7.28
2019-05-26T20:50:10.163Z,9.25
2019-05-26T20:52:39.483Z,10.20
2019-05-26T20:55:09.392Z,6.45
2019-05-26T20:57:38.708Z,5.97
2019-05-26T21:00:11.605Z,10.13
2019-05-26T21:02:41.802Z,6.95
2019-05-26T21:05:11.646Z,6.75
2019-05-26T21:07:40.992Z,13.22
2019-05-26T21:10:10.644Z,12.63
2019-05-26T21:12:41.089Z,11.18
2019-05-26T21:15:10.872Z,5.90
2019-05-26T21:17:40.175Z,6.62
2019-05-26T21:20:10.503Z,7.03
2019-05-26T21:22:39.818Z,5.70
2019-05-26T21:25:09.448Z,15.60
2019-05-26T21:27:38.739Z,7.33
2019-05-26T21:30:08.679Z,9.03
2019-05-26T21:32:37.987Z,4.62
2019-05-26T21:35:08.024Z,8.75
2019-05-26T21:37:37.314Z,9.25
2019-05-26T21:40:08.100Z,5.97
2019-05-26T21:42:37.436Z,5.25
2019-05-26T21:45:07.581Z,5.37
2019-05-26T21:47:36.893Z,14.15
2019-05-26T21:50:08.544Z,5.50
2019-05-26T21:52:38.073Z,8.88
2019-05-26T21:55:08.794Z,7.50
2019-05-26T21:57:38.085Z,5.08
2019-05-26T22:00:13.739Z,3.67
2019-05-26T22:02:44.008Z,6.45
2019-05-26T22:05:13.919Z,6.12
2019-05-26T22:07:43.218Z,3.80
2019-05-26T22:10:12.867Z,7.75
2019-05-26T22:12:42.197Z,8.75
2019-05-26T22:15:11.727Z,9.68
2019-05-26T22:17:41.037Z,8.78
2019-05-26T22:20:11.470Z,8.70
2019-05-26T22:22:40.745Z,8.25
2019-05-26T22:25:11.264Z,13.08
2019-05-26T22:27:40.560Z,6.40
2019-05-26T22:30:11.308Z,5.53
2019-05-26T22:32:40.781Z,7.12
2019-05-26T22:35:10.690Z,9.63
2019-05-26T22:37:39.985Z,7.15
2019-05-26T22:40:09.532Z,9.80
2019-05-26T22:42:38.826Z,6.62
2019-05-26T22:45:08.891Z,9.23
2019-05-26T22:47:38.181Z,8.60
2019-05-26T22:50:08.530Z,7.30
2019-05-26T22:52:38.917Z,11.33
2019-05-26T22:55:09.440Z,6.85
2019-05-26T22:57:38.749Z,9.33
2019-05-26T23:00:09.480Z,6.17
2019-05-26T23:02:38.786Z,9.68
2019-05-26T23:05:08.611Z,7.62
2019-05-26T23:07:37.914Z,10.48
2019-05-26T23:10:09.117Z,8.90
2019-05-26T23:12:38.415Z,9.33
2019-05-26T23:15:09.454Z,8.78
2019-05-26T23:17:39.062Z,7.25
2019-05-26T23:20:09.308Z,10.28
2019-05-26T23:22:38.618Z,12.00
2019-05-26T23:25:08.470Z,10.03
2019-05-26T23:27:37.782Z,12.80
2019-05-26T23:30:07.615Z,9.93
2019-05-26T23:32:36.924Z,16.02
2019-05-26T23:35:06.858Z,8.88
2019-05-26T23:37:36.440Z,9.53
2019-05-26T23:40:09.314Z,7.05
2019-05-26T23:42:38.631Z,9.83
2019-05-26T23:45:08.767Z,16.10
2019-05-26T23:47:38.067Z,7.85
2019-05-26T23:50:08.807Z,7.37
2019-05-26T23:52:38.112Z,9.48
2019-05-26T23:55:07.751Z,7.08
2019-05-26T23:57:37.161Z,7.53
